Weather History for Westminster, MD

Change the Weather History Date:

Friday, January 24, 2014

  Actual Average (KTHV) Record (KTHV)
Temperature  
Mean Temperature 9 °F -  
Max Temperature 15 °F 0 °F 60 °F (1999)
Min Temperature 3 °F - 0 °F (2011)
Degree Days  
Heating Degree Days 56    
Moisture  
Dew Point -3 °F    
Average Humidity 54    
Maximum Humidity 67    
Minimum Humidity 38    
Precipitation  
Precipitation 0.00 in - - ()
Sea Level Pressure  
Sea Level Pressure 30.30 in    
Wind  
Wind Speed 9 mph (WSW)    
Max Wind Speed 15 mph    
Max Gust Speed 25 mph    
Visibility 10 miles    
Events      
Averages and records for this station are not official NWS values.
T = Trace of Precipitation, MM = Missing Value Source: NWS Daily Summary

Daily Weather History Graph

Daily Weather History Graph

Search for Another Location

Airport:

Trip Planner

Search our weather history database for the weather conditions in past years. The results will help you decide how hot, cold, wet, or windy it might be!

Date:

Astronomy

Jan. 24, 2014 Rise Set
Actual Time 7:22 AM EST 5:18 PM EST
Civil Twilight 6:53 AM EST 5:47 PM EST
Nautical Twilight 6:20 AM EST 6:20 PM EST
Astronomical Twilight 5:48 AM EST 6:52 PM EST
Moon 12:47 AM EST (1/24) 11:35 AM EST (1/24)
Length of Visible Light 10h 54m
Length of Day
9h 56m
Last Quarter, 45% of the Moon is Illuminated
Jan 24
Last Quarter
Jan 30
New
Feb 6
First Quarter
Feb 14
Full
Feb 22
Last Quarter

Hourly Weather History & Observations

Time (EST) Temp. Windchill Dew Point Humidity Pressure Visibility Wind Dir Wind Speed Gust Speed Precip Events Conditions
12:05 AM 8.6 °F -4.7 °F -2.2 °F 62% 30.37 in 10.0 mi West 9.2 mph - N/A   Clear
12:25 AM 8.6 °F -2.6 °F -2.2 °F 62% 30.38 in 10.0 mi West 6.9 mph - N/A   Clear
12:45 AM 6.8 °F -6.9 °F -2.2 °F 67% 30.37 in 10.0 mi West 9.2 mph - N/A   Clear
1:05 AM 6.8 °F -8.6 °F -2.2 °F 67% 30.37 in 10.0 mi West 11.5 mph - N/A   Clear
1:25 AM 6.8 °F -6.9 °F -4.0 °F 61% 30.36 in 10.0 mi WNW 9.2 mph - N/A   Clear
1:45 AM 6.8 °F -9.3 °F -2.2 °F 67% 30.36 in 10.0 mi WNW 12.7 mph 17.3 mph N/A   Clear
2:05 AM 6.8 °F -8.6 °F -2.2 °F 67% 30.37 in 10.0 mi WNW 11.5 mph - N/A   Clear
2:25 AM 6.8 °F -10.0 °F -4.0 °F 61% 30.36 in 10.0 mi WNW 13.8 mph 19.6 mph N/A   Clear
2:45 AM 6.8 °F -10.0 °F -4.0 °F 61% 30.37 in 10.0 mi WNW 13.8 mph - N/A   Clear
3:05 AM 6.8 °F -6.9 °F -4.0 °F 61% 30.37 in 10.0 mi West 9.2 mph - N/A   Clear
3:25 AM 6.8 °F -8.6 °F -4.0 °F 61% 30.37 in 10.0 mi WNW 11.5 mph 16.1 mph N/A   Clear
3:45 AM 6.8 °F -10.7 °F -2.2 °F 67% 30.37 in 7.0 mi WNW 15.0 mph 25.3 mph N/A   Clear
4:05 AM 6.8 °F -10.0 °F -4.0 °F 61% 30.38 in 10.0 mi WNW 13.8 mph 20.7 mph N/A   Clear
4:25 AM 6.8 °F -10.0 °F -4.0 °F 61% 30.38 in 10.0 mi WNW 13.8 mph 17.3 mph N/A   Clear
4:45 AM 6.8 °F -5.9 °F -4.0 °F 61% 30.39 in 10.0 mi West 8.1 mph 16.1 mph N/A   Clear
5:05 AM 6.8 °F -2.0 °F -5.8 °F 56% 30.40 in 10.0 mi West 4.6 mph - N/A   Scattered Clouds
5:25 AM 6.8 °F -6.9 °F -5.8 °F 56% 30.40 in 10.0 mi West 9.2 mph - N/A   Clear
5:45 AM 6.8 °F -2.0 °F -5.8 °F 56% 30.41 in 10.0 mi WNW 4.6 mph - N/A   Clear
6:05 AM 6.8 °F -4.8 °F -5.8 °F 56% 30.42 in 10.0 mi West 6.9 mph - N/A   Clear
6:25 AM 5.0 °F -9.1 °F -5.8 °F 61% 30.42 in 10.0 mi West 9.2 mph - N/A   Clear
6:45 AM 5.0 °F -6.9 °F -5.8 °F 61% 30.43 in 10.0 mi West 6.9 mph - N/A   Clear
7:05 AM 3.2 °F -7.8 °F -5.8 °F 66% 30.43 in 10.0 mi West 5.8 mph - N/A   Clear
7:25 AM 3.2 °F -11.3 °F -5.8 °F 66% 30.43 in 10.0 mi WNW 9.2 mph - N/A   Clear
7:45 AM 5.0 °F -8.1 °F -5.8 °F 61% 30.44 in 10.0 mi West 8.1 mph - N/A   Clear
8:05 AM 5.0 °F -9.1 °F -5.8 °F 61% 30.44 in 10.0 mi West 9.2 mph - N/A   Clear
8:25 AM 5.0 °F -10.8 °F -5.8 °F 61% 30.44 in 10.0 mi West 11.5 mph - N/A   Clear
8:45 AM 6.8 °F -7.8 °F -5.8 °F 56% 30.44 in 10.0 mi West 10.4 mph - N/A   Clear
9:05 AM 6.8 °F -9.3 °F -4.0 °F 61% 30.44 in 10.0 mi West 12.7 mph 18.4 mph N/A   Clear
9:25 AM 6.8 °F -8.6 °F -4.0 °F 61% 30.45 in 10.0 mi West 11.5 mph - N/A   Clear
9:45 AM 6.8 °F -5.9 °F -5.8 °F 56% 30.45 in 10.0 mi WSW 8.1 mph - N/A   Clear
10:05 AM 6.8 °F -6.9 °F -5.8 °F 56% 30.45 in 10.0 mi West 9.2 mph - N/A   Clear
10:25 AM 8.6 °F -4.7 °F -2.2 °F 62% 30.45 in 10.0 mi West 9.2 mph - N/A   Clear
10:45 AM 8.6 °F -4.7 °F -2.2 °F 62% 30.44 in 10.0 mi West 9.2 mph - N/A   Clear
11:05 AM 8.6 °F 0.1 °F -2.2 °F 62% 30.43 in 10.0 mi West 4.6 mph - N/A   Clear
11:25 AM 10.4 °F -1.5 °F -2.2 °F 57% 30.42 in 10.0 mi WSW 8.1 mph - N/A   Clear
11:45 AM 10.4 °F -3.3 °F -2.2 °F 57% 30.40 in 10.0 mi West 10.4 mph 16.1 mph N/A   Clear
12:05 PM 10.4 °F -1.5 °F -2.2 °F 57% 30.39 in 10.0 mi West 8.1 mph - N/A   Clear
12:25 PM 12.2 °F -1.0 °F -0.4 °F 57% 30.38 in 10.0 mi SW 10.4 mph - N/A   Clear
12:45 PM 12.2 °F 1.7 °F -0.4 °F 57% 30.36 in 10.0 mi WSW 6.9 mph 17.3 mph N/A   Clear
1:05 PM 12.2 °F 0.7 °F -2.2 °F 53% 30.35 in 10.0 mi WSW 8.1 mph - N/A   Clear
1:25 PM 12.2 °F -1.0 °F -2.2 °F 53% 30.33 in 10.0 mi SW 10.4 mph - N/A   Clear
1:45 PM 12.2 °F -0.2 °F -2.2 °F 53% 30.32 in 10.0 mi WSW 9.2 mph - N/A   Clear
2:05 PM 12.2 °F -0.2 °F -2.2 °F 53% 30.32 in 10.0 mi SW 9.2 mph - N/A   Clear
2:25 PM 14.0 °F 2.0 °F -2.2 °F 49% 30.30 in 10.0 mi WSW 9.2 mph - N/A   Clear
2:45 PM 14.0 °F 0.5 °F -2.2 °F 49% 30.30 in 10.0 mi WSW 11.5 mph - N/A   Clear
3:05 PM 15.8 °F 5.1 °F -2.2 °F 45% 30.29 in 10.0 mi SW 8.1 mph - N/A   Clear
3:25 PM 15.8 °F 2.1 °F -2.2 °F 45% 30.28 in 10.0 mi SSW 12.7 mph - N/A   Clear
3:45 PM 15.8 °F 1.4 °F -2.2 °F 45% 30.27 in 10.0 mi SSW 13.8 mph - N/A   Clear
4:05 PM 15.8 °F 3.4 °F -2.2 °F 45% 30.25 in 10.0 mi SW 10.4 mph - N/A   Clear
4:25 PM 15.8 °F 3.4 °F -2.2 °F 45% 30.24 in 10.0 mi SSW 10.4 mph - N/A   Clear
4:45 PM 15.8 °F 3.4 °F -4.0 °F 41% 30.24 in 10.0 mi SW 10.4 mph - N/A   Clear
5:05 PM 15.8 °F 5.1 °F -5.8 °F 38% 30.23 in 10.0 mi SW 8.1 mph - N/A   Clear
5:25 PM 15.8 °F 7.2 °F -0.4 °F 49% 30.22 in 10.0 mi SSW 5.8 mph - N/A   Clear
5:45 PM 14.0 °F - -0.4 °F 53% 30.22 in 10.0 mi Calm Calm - N/A   Clear
6:05 PM 15.8 °F 8.6 °F -0.4 °F 49% 30.21 in 10.0 mi South 4.6 mph - N/A   Clear
6:25 PM 15.8 °F 6.1 °F -2.2 °F 45% 30.20 in 10.0 mi South 6.9 mph - N/A   Clear
6:45 PM 15.8 °F 6.1 °F -2.2 °F 45% 30.19 in 10.0 mi South 6.9 mph - N/A   Clear
7:05 PM 15.8 °F 7.2 °F -2.2 °F 45% 30.19 in 10.0 mi South 5.8 mph - N/A   Clear
7:25 PM 15.8 °F 7.2 °F -2.2 °F 45% 30.17 in 10.0 mi South 5.8 mph - N/A   Clear
7:45 PM 15.8 °F 6.1 °F -2.2 °F 45% 30.16 in 10.0 mi South 6.9 mph - N/A   Clear
8:05 PM 15.8 °F 4.2 °F -2.2 °F 45% 30.14 in 10.0 mi South 9.2 mph - N/A   Scattered Clouds
8:25 PM 15.8 °F 3.4 °F -2.2 °F 45% 30.13 in 10.0 mi South 10.4 mph - N/A   Clear
8:45 PM 15.8 °F 2.7 °F -4.0 °F 41% 30.12 in 10.0 mi South 11.5 mph - N/A   Clear
9:05 PM 15.8 °F 3.4 °F -4.0 °F 41% 30.10 in 10.0 mi South 10.4 mph - N/A   Clear
9:25 PM 15.8 °F 3.4 °F -2.2 °F 45% 30.09 in 10.0 mi South 10.4 mph - N/A   Scattered Clouds
9:45 PM 14.0 °F 2.9 °F -2.2 °F 49% 30.09 in 10.0 mi South 8.1 mph - N/A   Scattered Clouds
10:05 PM 14.0 °F 2.9 °F -2.2 °F 49% 30.08 in 10.0 mi South 8.1 mph - N/A   Clear
10:25 PM 14.0 °F 3.9 °F -2.2 °F 49% 30.06 in 10.0 mi South 6.9 mph - N/A   Clear
10:45 PM 14.0 °F 2.0 °F -2.2 °F 49% 30.05 in 10.0 mi South 9.2 mph - N/A   Scattered Clouds
11:05 PM 14.0 °F 1.2 °F -2.2 °F 49% 30.03 in 10.0 mi South 10.4 mph - N/A   Clear
11:25 PM 15.8 °F 5.1 °F -2.2 °F 45% 30.02 in 10.0 mi South 8.1 mph - N/A   Clear
11:45 PM 15.8 °F 3.4 °F -2.2 °F 45% 30.01 in 10.0 mi South 10.4 mph - N/A   Clear